sensor_id;sensor_type;location;lat;lon;timestamp;P1;durP1;ratioP1;P2;durP2;ratioP2
14015;SDS011;7083;48.854;9.158;2022-12-29T00:02:09;1019.00;;;950.80;;
14015;SDS011;7083;48.854;9.158;2022-12-29T00:04:36;1023.53;;;954.73;;
14015;SDS011;7083;48.854;9.158;2022-12-29T00:07:04;1028.53;;;959.17;;
14015;SDS011;7083;48.854;9.158;2022-12-29T00:09:31;1044.50;;;973.13;;
14015;SDS011;7083;48.854;9.158;2022-12-29T00:11:59;1053.10;;;980.53;;
14015;SDS011;7083;48.854;9.158;2022-12-29T00:14:26;1054.40;;;981.03;;
14015;SDS011;7083;48.854;9.158;2022-12-29T00:17:10;1048.10;;;976.17;;
14015;SDS011;7083;48.854;9.158;2022-12-29T00:19:37;1050.70;;;978.27;;
14015;SDS011;7083;48.854;9.158;2022-12-29T00:22:23;1041.13;;;969.93;;
14015;SDS011;7083;48.854;9.158;2022-12-29T00:25:07;1046.20;;;974.33;;
14015;SDS011;7083;48.854;9.158;2022-12-29T00:27:56;1031.80;;;961.50;;
14015;SDS011;7083;48.854;9.158;2022-12-29T00:30:41;1020.97;;;952.13;;
14015;SDS011;7083;48.854;9.158;2022-12-29T00:33:26;1028.03;;;958.03;;
14015;SDS011;7083;48.854;9.158;2022-12-29T00:36:13;1060.57;;;986.90;;
14015;SDS011;7083;48.854;9.158;2022-12-29T00:38:46;1025.13;;;955.33;;
14015;SDS011;7083;48.854;9.158;2022-12-29T00:41:33;1044.77;;;972.53;;
14015;SDS011;7083;48.854;9.158;2022-12-29T00:44:28;1044.23;;;972.40;;
14015;SDS011;7083;48.854;9.158;2022-12-29T00:46:55;1041.53;;;969.73;;
14015;SDS011;7083;48.854;9.158;2022-12-29T00:49:22;1061.70;;;987.47;;
14015;SDS011;7083;48.854;9.158;2022-12-29T00:51:57;1075.83;;;999.10;;
14015;SDS011;7083;48.854;9.158;2022-12-29T00:54:27;1059.17;;;985.37;;
14015;SDS011;7083;48.854;9.158;2022-12-29T00:56:54;1054.90;;;981.53;;
14015;SDS011;7083;48.854;9.158;2022-12-29T00:59:21;1055.67;;;981.63;;
14015;SDS011;7083;48.854;9.158;2022-12-29T01:01:49;1047.40;;;975.10;;
14015;SDS011;7083;48.854;9.158;2022-12-29T01:04:16;1014.63;;;946.10;;
14015;SDS011;7083;48.854;9.158;2022-12-29T01:06:43;1026.30;;;956.33;;
14015;SDS011;7083;48.854;9.158;2022-12-29T01:09:10;1048.83;;;976.13;;
14015;SDS011;7083;48.854;9.158;2022-12-29T01:11:56;1044.37;;;972.73;;
14015;SDS011;7083;48.854;9.158;2022-12-29T01:14:22;1030.10;;;959.47;;
14015;SDS011;7083;48.854;9.158;2022-12-29T01:16:49;1044.10;;;971.60;;
14015;SDS011;7083;48.854;9.158;2022-12-29T01:19:17;1048.50;;;976.23;;
14015;SDS011;7083;48.854;9.158;2022-12-29T01:21:44;1025.60;;;956.30;;
14015;SDS011;7083;48.854;9.158;2022-12-29T01:24:11;1022.50;;;952.87;;
14015;SDS011;7083;48.854;9.158;2022-12-29T01:26:38;1039.70;;;968.60;;
14015;SDS011;7083;48.854;9.158;2022-12-29T01:29:06;1032.00;;;961.73;;
14015;SDS011;7083;48.854;9.158;2022-12-29T01:31:32;1029.70;;;960.10;;
14015;SDS011;7083;48.854;9.158;2022-12-29T01:33:59;1013.17;;;942.27;;
14015;SDS011;7083;48.854;9.158;2022-12-29T01:36:26;1122.17;;;999.90;;
14015;SDS011;7083;48.854;9.158;2022-12-29T01:38:53;1105.63;;;999.90;;
14015;SDS011;7083;48.854;9.158;2022-12-29T01:41:20;1078.13;;;998.00;;
14015;SDS011;7083;48.854;9.158;2022-12-29T01:43:47;1143.27;;;999.90;;
14015;SDS011;7083;48.854;9.158;2022-12-29T01:46:19;1105.87;;;999.90;;
14015;SDS011;7083;48.854;9.158;2022-12-29T01:48:50;1080.80;;;998.90;;
14015;SDS011;7083;48.854;9.158;2022-12-29T01:51:19;1034.53;;;960.50;;
14015;SDS011;7083;48.854;9.158;2022-12-29T01:53:49;1148.93;;;999.90;;
14015;SDS011;7083;48.854;9.158;2022-12-29T01:56:16;1125.50;;;999.90;;
14015;SDS011;7083;48.854;9.158;2022-12-29T01:58:46;1108.63;;;999.90;;
14015;SDS011;7083;48.854;9.158;2022-12-29T02:01:19;1110.27;;;999.90;;
14015;SDS011;7083;48.854;9.158;2022-12-29T02:03:47;1040.43;;;965.90;;
14015;SDS011;7083;48.854;9.158;2022-12-29T02:06:16;1132.63;;;999.90;;
14015;SDS011;7083;48.854;9.158;2022-12-29T02:08:46;1103.97;;;999.90;;
14015;SDS011;7083;48.854;9.158;2022-12-29T02:11:15;1069.37;;;993.03;;
14015;SDS011;7083;48.854;9.158;2022-12-29T02:13:42;1047.10;;;974.17;;
14015;SDS011;7083;48.854;9.158;2022-12-29T02:16:13;1078.20;;;998.37;;
14015;SDS011;7083;48.854;9.158;2022-12-29T02:18:53;1067.07;;;991.50;;
14015;SDS011;7083;48.854;9.158;2022-12-29T02:21:42;1066.33;;;991.30;;
14015;SDS011;7083;48.854;9.158;2022-12-29T02:24:46;1066.50;;;991.27;;
14015;SDS011;7083;48.854;9.158;2022-12-29T02:27:34;1057.60;;;982.97;;
14015;SDS011;7083;48.854;9.158;2022-12-29T02:30:12;1080.50;;;999.90;;
14015;SDS011;7083;48.854;9.158;2022-12-29T02:32:54;1021.70;;;952.37;;
14015;SDS011;7083;48.854;9.158;2022-12-29T02:35:29;1034.60;;;964.00;;
14015;SDS011;7083;48.854;9.158;2022-12-29T02:38:03;1002.13;;;933.43;;
14015;SDS011;7083;48.854;9.158;2022-12-29T02:40:39;1052.63;;;978.97;;
14015;SDS011;7083;48.854;9.158;2022-12-29T02:43:13;1035.37;;;961.03;;
14015;SDS011;7083;48.854;9.158;2022-12-29T02:45:51;1016.07;;;944.23;;
14015;SDS011;7083;48.854;9.158;2022-12-29T02:48:23;1148.57;;;999.90;;
14015;SDS011;7083;48.854;9.158;2022-12-29T02:50:55;1026.40;;;953.27;;
14015;SDS011;7083;48.854;9.158;2022-12-29T02:53:25;1029.97;;;956.63;;
14015;SDS011;7083;48.854;9.158;2022-12-29T02:56:12;1028.40;;;954.80;;
14015;SDS011;7083;48.854;9.158;2022-12-29T02:58:39;1031.13;;;957.27;;
14015;SDS011;7083;48.854;9.158;2022-12-29T03:01:19;1129.53;;;999.90;;
14015;SDS011;7083;48.854;9.158;2022-12-29T03:03:56;1076.70;;;998.50;;
14015;SDS011;7083;48.854;9.158;2022-12-29T03:06:38;1044.93;;;969.33;;
14015;SDS011;7083;48.854;9.158;2022-12-29T03:09:18;1148.53;;;999.90;;
14015;SDS011;7083;48.854;9.158;2022-12-29T03:11:52;1136.33;;;999.90;;
14015;SDS011;7083;48.854;9.158;2022-12-29T03:14:37;1109.50;;;999.90;;
14015;SDS011;7083;48.854;9.158;2022-12-29T03:17:36;1072.00;;;995.87;;
14015;SDS011;7083;48.854;9.158;2022-12-29T03:20:10;1068.80;;;993.53;;
14015;SDS011;7083;48.854;9.158;2022-12-29T03:22:43;1060.53;;;986.67;;
14015;SDS011;7083;48.854;9.158;2022-12-29T03:25:14;1019.13;;;949.90;;
14015;SDS011;7083;48.854;9.158;2022-12-29T03:27:46;1013.50;;;945.20;;
14015;SDS011;7083;48.854;9.158;2022-12-29T03:30:16;1043.30;;;970.93;;
14015;SDS011;7083;48.854;9.158;2022-12-29T03:32:46;1023.43;;;953.93;;
14015;SDS011;7083;48.854;9.158;2022-12-29T03:35:15;1039.30;;;965.00;;
14015;SDS011;7083;48.854;9.158;2022-12-29T03:37:49;1069.47;;;993.33;;
14015;SDS011;7083;48.854;9.158;2022-12-29T03:40:19;1096.80;;;999.90;;
14015;SDS011;7083;48.854;9.158;2022-12-29T03:42:48;1130.17;;;999.90;;
14015;SDS011;7083;48.854;9.158;2022-12-29T03:45:16;1106.57;;;999.90;;
14015;SDS011;7083;48.854;9.158;2022-12-29T03:47:44;1129.73;;;999.90;;
14015;SDS011;7083;48.854;9.158;2022-12-29T03:50:11;1105.83;;;999.90;;
14015;SDS011;7083;48.854;9.158;2022-12-29T03:52:38;1121.43;;;999.90;;
14015;SDS011;7083;48.854;9.158;2022-12-29T03:55:05;1100.70;;;999.90;;
14015;SDS011;7083;48.854;9.158;2022-12-29T03:57:32;892.50;;;827.13;;
14015;SDS011;7083;48.854;9.158;2022-12-29T03:59:58;1999.90;;;999.90;;
14015;SDS011;7083;48.854;9.158;2022-12-29T04:02:25;1999.90;;;999.90;;
14015;SDS011;7083;48.854;9.158;2022-12-29T04:04:53;1999.90;;;999.90;;
14015;SDS011;7083;48.854;9.158;2022-12-29T04:07:20;1999.90;;;999.90;;
14015;SDS011;7083;48.854;9.158;2022-12-29T04:09:46;1999.90;;;999.90;;
14015;SDS011;7083;48.854;9.158;2022-12-29T04:12:13;1999.90;;;999.90;;
14015;SDS011;7083;48.854;9.158;2022-12-29T04:14:40;1999.90;;;999.90;;
14015;SDS011;7083;48.854;9.158;2022-12-29T04:17:07;1999.90;;;999.90;;
14015;SDS011;7083;48.854;9.158;2022-12-29T04:19:33;1999.90;;;999.90;;
14015;SDS011;7083;48.854;9.158;2022-12-29T04:22:01;1999.90;;;999.90;;
14015;SDS011;7083;48.854;9.158;2022-12-29T04:24:28;1999.90;;;999.90;;
14015;SDS011;7083;48.854;9.158;2022-12-29T04:26:55;1999.90;;;999.90;;
14015;SDS011;7083;48.854;9.158;2022-12-29T04:29:21;1999.90;;;999.90;;
14015;SDS011;7083;48.854;9.158;2022-12-29T04:31:48;1999.90;;;999.90;;
14015;SDS011;7083;48.854;9.158;2022-12-29T04:34:15;1512.77;;;831.37;;
14015;SDS011;7083;48.854;9.158;2022-12-29T04:36:42;1999.90;;;999.90;;
14015;SDS011;7083;48.854;9.158;2022-12-29T04:39:10;1999.90;;;999.90;;
14015;SDS011;7083;48.854;9.158;2022-12-29T04:41:36;1999.90;;;999.90;;
14015;SDS011;7083;48.854;9.158;2022-12-29T04:44:03;1999.90;;;999.90;;
14015;SDS011;7083;48.854;9.158;2022-12-29T04:46:30;1999.90;;;999.90;;
14015;SDS011;7083;48.854;9.158;2022-12-29T04:48:56;1999.90;;;999.90;;
14015;SDS011;7083;48.854;9.158;2022-12-29T04:51:25;1999.90;;;999.90;;
14015;SDS011;7083;48.854;9.158;2022-12-29T04:53:52;1999.90;;;999.90;;
14015;SDS011;7083;48.854;9.158;2022-12-29T04:56:20;1197.47;;;822.47;;
14015;SDS011;7083;48.854;9.158;2022-12-29T04:58:46;1126.20;;;999.90;;
14015;SDS011;7083;48.854;9.158;2022-12-29T05:01:13;1138.77;;;999.90;;
14015;SDS011;7083;48.854;9.158;2022-12-29T05:03:40;1071.00;;;991.53;;
14015;SDS011;7083;48.854;9.158;2022-12-29T05:06:07;1092.20;;;999.90;;
14015;SDS011;7083;48.854;9.158;2022-12-29T05:08:34;1111.67;;;999.90;;
14015;SDS011;7083;48.854;9.158;2022-12-29T05:11:00;1103.87;;;999.90;;
14015;SDS011;7083;48.854;9.158;2022-12-29T05:13:28;1138.43;;;999.90;;
14015;SDS011;7083;48.854;9.158;2022-12-29T05:15:55;1156.60;;;999.90;;
14015;SDS011;7083;48.854;9.158;2022-12-29T05:18:21;1095.23;;;999.90;;
14015;SDS011;7083;48.854;9.158;2022-12-29T05:20:48;1095.20;;;999.90;;
14015;SDS011;7083;48.854;9.158;2022-12-29T05:23:15;1068.67;;;990.63;;
14015;SDS011;7083;48.854;9.158;2022-12-29T05:25:42;1069.73;;;991.97;;
14015;SDS011;7083;48.854;9.158;2022-12-29T05:28:10;1032.03;;;959.43;;
14015;SDS011;7083;48.854;9.158;2022-12-29T05:30:38;1058.80;;;983.93;;
14015;SDS011;7083;48.854;9.158;2022-12-29T05:33:05;1085.50;;;999.90;;
14015;SDS011;7083;48.854;9.158;2022-12-29T05:35:32;1669.47;;;979.20;;
14015;SDS011;7083;48.854;9.158;2022-12-29T05:37:58;1018.33;;;946.80;;
14015;SDS011;7083;48.854;9.158;2022-12-29T05:40:25;1073.87;;;995.60;;
14015;SDS011;7083;48.854;9.158;2022-12-29T05:42:52;1059.70;;;984.97;;
14015;SDS011;7083;48.854;9.158;2022-12-29T05:45:18;1036.07;;;962.83;;
14015;SDS011;7083;48.854;9.158;2022-12-29T05:47:46;978.47;;;908.10;;
14015;SDS011;7083;48.854;9.158;2022-12-29T05:50:13;1999.90;;;999.90;;
14015;SDS011;7083;48.854;9.158;2022-12-29T05:52:40;888.83;;;824.23;;
14015;SDS011;7083;48.854;9.158;2022-12-29T05:55:07;1999.90;;;999.90;;
14015;SDS011;7083;48.854;9.158;2022-12-29T05:57:34;1534.73;;;853.13;;
14015;SDS011;7083;48.854;9.158;2022-12-29T06:00:01;1999.90;;;999.90;;
14015;SDS011;7083;48.854;9.158;2022-12-29T06:02:28;1470.03;;;792.90;;
14015;SDS011;7083;48.854;9.158;2022-12-29T06:04:56;1999.90;;;999.90;;
14015;SDS011;7083;48.854;9.158;2022-12-29T06:07:23;1999.90;;;999.90;;
14015;SDS011;7083;48.854;9.158;2022-12-29T06:09:50;1999.90;;;999.90;;
14015;SDS011;7083;48.854;9.158;2022-12-29T06:12:16;1999.90;;;999.90;;
14015;SDS011;7083;48.854;9.158;2022-12-29T06:14:43;1999.90;;;999.90;;
14015;SDS011;7083;48.854;9.158;2022-12-29T06:17:10;1508.40;;;827.87;;
14015;SDS011;7083;48.854;9.158;2022-12-29T06:19:36;1999.90;;;999.90;;
14015;SDS011;7083;48.854;9.158;2022-12-29T06:22:04;1999.90;;;999.90;;
14015;SDS011;7083;48.854;9.158;2022-12-29T06:24:32;1999.90;;;999.90;;
14015;SDS011;7083;48.854;9.158;2022-12-29T06:26:59;1451.03;;;774.77;;
14015;SDS011;7083;48.854;9.158;2022-12-29T06:29:25;1588.00;;;901.17;;
14015;SDS011;7083;48.854;9.158;2022-12-29T06:31:52;1080.93;;;714.07;;
14015;SDS011;7083;48.854;9.158;2022-12-29T06:34:22;1999.90;;;999.90;;
14015;SDS011;7083;48.854;9.158;2022-12-29T06:36:49;1999.90;;;999.90;;
14015;SDS011;7083;48.854;9.158;2022-12-29T06:39:17;576.63;;;529.53;;
14015;SDS011;7083;48.854;9.158;2022-12-29T06:41:44;1131.27;;;760.10;;
14015;SDS011;7083;48.854;9.158;2022-12-29T06:44:11;1586.10;;;899.10;;
14015;SDS011;7083;48.854;9.158;2022-12-29T06:46:37;1132.00;;;999.90;;
14015;SDS011;7083;48.854;9.158;2022-12-29T06:49:04;1008.13;;;932.87;;
14015;SDS011;7083;48.854;9.158;2022-12-29T06:51:31;1038.60;;;960.30;;
14015;SDS011;7083;48.854;9.158;2022-12-29T06:53:57;1090.43;;;999.90;;
14015;SDS011;7083;48.854;9.158;2022-12-29T06:56:25;1072.30;;;989.80;;
14015;SDS011;7083;48.854;9.158;2022-12-29T06:58:52;1154.10;;;999.90;;
14015;SDS011;7083;48.854;9.158;2022-12-29T07:01:19;1060.80;;;981.80;;
14015;SDS011;7083;48.854;9.158;2022-12-29T07:03:45;1046.70;;;970.10;;
14015;SDS011;7083;48.854;9.158;2022-12-29T07:06:12;1030.03;;;952.43;;
14015;SDS011;7083;48.854;9.158;2022-12-29T07:08:39;1155.50;;;999.90;;
14015;SDS011;7083;48.854;9.158;2022-12-29T07:11:06;1077.93;;;994.80;;
14015;SDS011;7083;48.854;9.158;2022-12-29T07:13:34;1085.80;;;998.90;;
14015;SDS011;7083;48.854;9.158;2022-12-29T07:16:04;1152.17;;;999.90;;
14015;SDS011;7083;48.854;9.158;2022-12-29T07:18:31;1124.80;;;999.90;;
14015;SDS011;7083;48.854;9.158;2022-12-29T07:20:58;1117.53;;;999.90;;
14015;SDS011;7083;48.854;9.158;2022-12-29T07:23:24;1120.77;;;999.90;;
14015;SDS011;7083;48.854;9.158;2022-12-29T07:25:58;1093.97;;;999.90;;
14015;SDS011;7083;48.854;9.158;2022-12-29T07:28:25;1142.93;;;999.90;;
14015;SDS011;7083;48.854;9.158;2022-12-29T07:30:53;1107.80;;;999.90;;
14015;SDS011;7083;48.854;9.158;2022-12-29T07:33:20;1130.47;;;999.90;;
14015;SDS011;7083;48.854;9.158;2022-12-29T07:35:47;1109.00;;;999.90;;
14015;SDS011;7083;48.854;9.158;2022-12-29T07:38:13;1068.97;;;988.60;;
14015;SDS011;7083;48.854;9.158;2022-12-29T07:40:41;1064.73;;;985.50;;
14015;SDS011;7083;48.854;9.158;2022-12-29T07:43:08;1106.27;;;999.90;;
14015;SDS011;7083;48.854;9.158;2022-12-29T07:45:35;1119.97;;;999.90;;
14015;SDS011;7083;48.854;9.158;2022-12-29T07:48:03;1131.43;;;999.90;;
14015;SDS011;7083;48.854;9.158;2022-12-29T07:50:32;1126.57;;;999.90;;
14015;SDS011;7083;48.854;9.158;2022-12-29T07:52:59;1131.50;;;999.90;;
14015;SDS011;7083;48.854;9.158;2022-12-29T07:55:26;1091.80;;;999.90;;
14015;SDS011;7083;48.854;9.158;2022-12-29T07:57:53;1131.93;;;999.90;;
14015;SDS011;7083;48.854;9.158;2022-12-29T08:00:20;1107.07;;;999.90;;
14015;SDS011;7083;48.854;9.158;2022-12-29T08:02:46;1091.00;;;999.90;;
14015;SDS011;7083;48.854;9.158;2022-12-29T08:05:15;1063.83;;;984.90;;
14015;SDS011;7083;48.854;9.158;2022-12-29T08:07:42;1133.90;;;999.90;;
14015;SDS011;7083;48.854;9.158;2022-12-29T08:10:10;1083.83;;;999.90;;
14015;SDS011;7083;48.854;9.158;2022-12-29T08:12:37;1119.43;;;999.90;;
14015;SDS011;7083;48.854;9.158;2022-12-29T08:15:05;1145.07;;;999.90;;
14015;SDS011;7083;48.854;9.158;2022-12-29T08:17:33;1105.27;;;999.90;;
14015;SDS011;7083;48.854;9.158;2022-12-29T08:20:00;1116.13;;;999.90;;
14015;SDS011;7083;48.854;9.158;2022-12-29T08:22:28;1073.60;;;994.40;;
14015;SDS011;7083;48.854;9.158;2022-12-29T08:24:55;996.27;;;926.53;;
14015;SDS011;7083;48.854;9.158;2022-12-29T08:27:22;1084.27;;;999.90;;
14015;SDS011;7083;48.854;9.158;2022-12-29T08:29:48;1089.97;;;999.90;;
14015;SDS011;7083;48.854;9.158;2022-12-29T08:32:15;1005.77;;;933.60;;
14015;SDS011;7083;48.854;9.158;2022-12-29T08:34:42;1083.73;;;999.90;;
14015;SDS011;7083;48.854;9.158;2022-12-29T08:37:09;1069.93;;;989.80;;
14015;SDS011;7083;48.854;9.158;2022-12-29T08:39:37;1000.60;;;930.13;;
14015;SDS011;7083;48.854;9.158;2022-12-29T08:42:03;1021.80;;;948.70;;
14015;SDS011;7083;48.854;9.158;2022-12-29T08:44:31;1077.77;;;997.00;;
14015;SDS011;7083;48.854;9.158;2022-12-29T08:46:57;1014.47;;;941.27;;
14015;SDS011;7083;48.854;9.158;2022-12-29T08:49:24;1084.57;;;999.90;;
14015;SDS011;7083;48.854;9.158;2022-12-29T08:51:51;1094.80;;;999.90;;
14015;SDS011;7083;48.854;9.158;2022-12-29T08:54:17;1085.70;;;999.90;;
14015;SDS011;7083;48.854;9.158;2022-12-29T08:56:45;999.90;;;928.37;;
14015;SDS011;7083;48.854;9.158;2022-12-29T08:59:12;1084.27;;;999.90;;
14015;SDS011;7083;48.854;9.158;2022-12-29T09:01:39;1076.37;;;995.77;;
14015;SDS011;7083;48.854;9.158;2022-12-29T09:04:06;1071.77;;;991.50;;
14015;SDS011;7083;48.854;9.158;2022-12-29T09:06:33;993.40;;;923.47;;
14015;SDS011;7083;48.854;9.158;2022-12-29T09:08:59;1001.67;;;930.37;;
14015;SDS011;7083;48.854;9.158;2022-12-29T09:11:26;1089.60;;;999.90;;
14015;SDS011;7083;48.854;9.158;2022-12-29T09:13:54;1093.53;;;999.90;;
14015;SDS011;7083;48.854;9.158;2022-12-29T09:16:22;1070.17;;;993.23;;
14015;SDS011;7083;48.854;9.158;2022-12-29T09:18:49;989.83;;;920.37;;
14015;SDS011;7083;48.854;9.158;2022-12-29T09:21:16;952.10;;;887.03;;
14015;SDS011;7083;48.854;9.158;2022-12-29T09:23:43;864.73;;;808.23;;
14015;SDS011;7083;48.854;9.158;2022-12-29T09:26:10;964.07;;;897.37;;
14015;SDS011;7083;48.854;9.158;2022-12-29T09:28:37;985.07;;;916.93;;
14015;SDS011;7083;48.854;9.158;2022-12-29T09:31:05;941.07;;;877.17;;
14015;SDS011;7083;48.854;9.158;2022-12-29T09:33:32;1016.17;;;943.37;;
14015;SDS011;7083;48.854;9.158;2022-12-29T09:35:59;1020.23;;;948.17;;
14015;SDS011;7083;48.854;9.158;2022-12-29T09:38:26;1044.90;;;968.63;;
14015;SDS011;7083;48.854;9.158;2022-12-29T09:40:54;1052.67;;;975.33;;
14015;SDS011;7083;48.854;9.158;2022-12-29T09:43:38;1053.23;;;974.27;;
14015;SDS011;7083;48.854;9.158;2022-12-29T09:46:18;1100.80;;;999.90;;
14015;SDS011;7083;48.854;9.158;2022-12-29T09:48:51;1083.03;;;996.80;;
14015;SDS011;7083;48.854;9.158;2022-12-29T09:51:33;1090.50;;;999.90;;
14015;SDS011;7083;48.854;9.158;2022-12-29T09:54:07;1106.00;;;999.90;;
14015;SDS011;7083;48.854;9.158;2022-12-29T09:56:56;1093.90;;;999.90;;
14015;SDS011;7083;48.854;9.158;2022-12-29T09:59:24;1071.90;;;988.10;;
14015;SDS011;7083;48.854;9.158;2022-12-29T10:02:04;1045.30;;;962.87;;
14015;SDS011;7083;48.854;9.158;2022-12-29T10:04:39;1085.27;;;994.27;;
14015;SDS011;7083;48.854;9.158;2022-12-29T10:07:09;1120.30;;;999.90;;
14015;SDS011;7083;48.854;9.158;2022-12-29T10:09:40;1099.60;;;999.30;;
14015;SDS011;7083;48.854;9.158;2022-12-29T10:12:16;1010.70;;;918.90;;
14015;SDS011;7083;48.854;9.158;2022-12-29T10:14:54;992.67;;;904.23;;
14015;SDS011;7083;48.854;9.158;2022-12-29T10:17:29;1115.70;;;999.90;;
14015;SDS011;7083;48.854;9.158;2022-12-29T10:20:12;1071.60;;;977.50;;
14015;SDS011;7083;48.854;9.158;2022-12-29T10:22:51;1079.10;;;984.60;;
14015;SDS011;7083;48.854;9.158;2022-12-29T10:25:38;1066.50;;;973.60;;
14015;SDS011;7083;48.854;9.158;2022-12-29T10:28:10;1076.93;;;983.00;;
14015;SDS011;7083;48.854;9.158;2022-12-29T10:30:45;1035.33;;;946.87;;
14015;SDS011;7083;48.854;9.158;2022-12-29T10:33:17;985.10;;;900.23;;
14015;SDS011;7083;48.854;9.158;2022-12-29T10:35:46;1095.53;;;998.00;;
14015;SDS011;7083;48.854;9.158;2022-12-29T10:38:15;942.00;;;869.33;;
14015;SDS011;7083;48.854;9.158;2022-12-29T10:40:49;931.37;;;857.57;;
14015;SDS011;7083;48.854;9.158;2022-12-29T10:43:21;924.47;;;852.53;;
14015;SDS011;7083;48.854;9.158;2022-12-29T10:45:51;974.10;;;897.73;;
14015;SDS011;7083;48.854;9.158;2022-12-29T10:48:22;967.80;;;891.10;;
14015;SDS011;7083;48.854;9.158;2022-12-29T10:50:51;971.53;;;895.63;;
14015;SDS011;7083;48.854;9.158;2022-12-29T10:53:22;988.13;;;910.60;;
14015;SDS011;7083;48.854;9.158;2022-12-29T10:55:52;1079.53;;;989.43;;
14015;SDS011;7083;48.854;9.158;2022-12-29T10:58:20;1103.63;;;999.90;;
14015;SDS011;7083;48.854;9.158;2022-12-29T11:00:49;1040.97;;;956.80;;
14015;SDS011;7083;48.854;9.158;2022-12-29T11:03:28;1075.47;;;991.00;;
14015;SDS011;7083;48.854;9.158;2022-12-29T11:06:18;1049.33;;;967.67;;
14015;SDS011;7083;48.854;9.158;2022-12-29T11:08:51;1047.10;;;966.57;;
14015;SDS011;7083;48.854;9.158;2022-12-29T11:11:22;1090.67;;;999.63;;
14015;SDS011;7083;48.854;9.158;2022-12-29T11:13:55;1099.73;;;999.90;;
14015;SDS011;7083;48.854;9.158;2022-12-29T11:16:28;1047.73;;;963.47;;
14015;SDS011;7083;48.854;9.158;2022-12-29T11:18:58;1050.57;;;965.60;;
14015;SDS011;7083;48.854;9.158;2022-12-29T11:21:26;991.77;;;907.23;;
14015;SDS011;7083;48.854;9.158;2022-12-29T11:23:58;1633.23;;;939.97;;
14015;SDS011;7083;48.854;9.158;2022-12-29T11:26:26;937.57;;;855.47;;
14015;SDS011;7083;48.854;9.158;2022-12-29T11:31:46;1999.90;;;999.90;;
14015;SDS011;7083;48.854;9.158;2022-12-29T11:34:19;1999.90;;;999.90;;
14015;SDS011;7083;48.854;9.158;2022-12-29T11:36:48;1999.90;;;999.90;;
14015;SDS011;7083;48.854;9.158;2022-12-29T11:39:30;1999.90;;;999.90;;
14015;SDS011;7083;48.854;9.158;2022-12-29T11:42:01;1999.90;;;999.90;;
14015;SDS011;7083;48.854;9.158;2022-12-29T11:44:31;1999.90;;;999.90;;
14015;SDS011;7083;48.854;9.158;2022-12-29T11:47:02;1999.90;;;999.90;;
14015;SDS011;7083;48.854;9.158;2022-12-29T11:49:32;1999.90;;;999.90;;
14015;SDS011;7083;48.854;9.158;2022-12-29T11:51:59;1999.90;;;999.90;;
14015;SDS011;7083;48.854;9.158;2022-12-29T11:54:27;1999.90;;;999.90;;
14015;SDS011;7083;48.854;9.158;2022-12-29T11:56:57;1999.90;;;999.90;;
14015;SDS011;7083;48.854;9.158;2022-12-29T11:59:38;851.60;;;788.50;;
14015;SDS011;7083;48.854;9.158;2022-12-29T12:02:22;949.20;;;879.70;;
14015;SDS011;7083;48.854;9.158;2022-12-29T12:05:01;960.30;;;890.03;;
14015;SDS011;7083;48.854;9.158;2022-12-29T12:07:37;977.87;;;907.17;;
14015;SDS011;7083;48.854;9.158;2022-12-29T12:10:10;984.93;;;914.87;;
14015;SDS011;7083;48.854;9.158;2022-12-29T12:12:44;943.60;;;878.40;;
14015;SDS011;7083;48.854;9.158;2022-12-29T12:15:15;954.40;;;888.97;;
14015;SDS011;7083;48.854;9.158;2022-12-29T12:17:47;934.33;;;870.97;;
14015;SDS011;7083;48.854;9.158;2022-12-29T12:20:21;964.90;;;900.07;;
14015;SDS011;7083;48.854;9.158;2022-12-29T12:22:54;953.10;;;889.07;;
14015;SDS011;7083;48.854;9.158;2022-12-29T12:25:30;999.13;;;929.30;;
14015;SDS011;7083;48.854;9.158;2022-12-29T12:28:03;1001.53;;;931.43;;
14015;SDS011;7083;48.854;9.158;2022-12-29T12:30:37;992.47;;;923.37;;
14015;SDS011;7083;48.854;9.158;2022-12-29T12:33:13;965.40;;;899.50;;
14015;SDS011;7083;48.854;9.158;2022-12-29T12:35:50;1007.27;;;937.27;;
14015;SDS011;7083;48.854;9.158;2022-12-29T12:39:29;973.70;;;907.40;;
14015;SDS011;7083;48.854;9.158;2022-12-29T13:07:20;1075.60;;;993.73;;
14015;SDS011;7083;48.854;9.158;2022-12-29T13:09:56;1107.97;;;999.90;;
14015;SDS011;7083;48.854;9.158;2022-12-29T13:12:41;1075.50;;;993.17;;
14015;SDS011;7083;48.854;9.158;2022-12-29T13:15:19;1052.63;;;972.00;;
14015;SDS011;7083;48.854;9.158;2022-12-29T13:17:59;1074.70;;;993.40;;
14015;SDS011;7083;48.854;9.158;2022-12-29T13:20:33;1076.67;;;995.00;;
14015;SDS011;7083;48.854;9.158;2022-12-29T13:23:08;1063.10;;;983.97;;
14015;SDS011;7083;48.854;9.158;2022-12-29T13:25:40;1039.60;;;962.77;;
14015;SDS011;7083;48.854;9.158;2022-12-29T13:28:14;1075.00;;;993.70;;
14015;SDS011;7083;48.854;9.158;2022-12-29T13:30:47;1049.43;;;970.47;;
14015;SDS011;7083;48.854;9.158;2022-12-29T13:33:21;1029.10;;;953.63;;
14015;SDS011;7083;48.854;9.158;2022-12-29T13:35:55;1026.27;;;951.77;;
14015;SDS011;7083;48.854;9.158;2022-12-29T13:38:29;1011.40;;;940.50;;
14015;SDS011;7083;48.854;9.158;2022-12-29T13:41:00;994.83;;;925.43;;
14015;SDS011;7083;48.854;9.158;2022-12-29T13:43:31;968.37;;;902.07;;
14015;SDS011;7083;48.854;9.158;2022-12-29T13:46:02;959.37;;;894.77;;
14015;SDS011;7083;48.854;9.158;2022-12-29T13:48:35;981.33;;;915.07;;
14015;SDS011;7083;48.854;9.158;2022-12-29T13:51:05;967.57;;;902.40;;
14015;SDS011;7083;48.854;9.158;2022-12-29T13:53:37;960.70;;;897.23;;
14015;SDS011;7083;48.854;9.158;2022-12-29T13:56:16;958.10;;;894.27;;
14015;SDS011;7083;48.854;9.158;2022-12-29T13:58:50;954.07;;;891.30;;
14015;SDS011;7083;48.854;9.158;2022-12-29T14:01:21;949.93;;;887.33;;
14015;SDS011;7083;48.854;9.158;2022-12-29T14:03:54;951.17;;;888.40;;
14015;SDS011;7083;48.854;9.158;2022-12-29T14:06:23;946.47;;;884.50;;
14015;SDS011;7083;48.854;9.158;2022-12-29T14:08:53;957.00;;;894.00;;
14015;SDS011;7083;48.854;9.158;2022-12-29T14:11:22;946.00;;;883.90;;
14015;SDS011;7083;48.854;9.158;2022-12-29T14:13:55;959.40;;;895.47;;
14015;SDS011;7083;48.854;9.158;2022-12-29T14:16:26;925.77;;;865.93;;
14015;SDS011;7083;48.854;9.158;2022-12-29T14:19:06;939.10;;;877.33;;
14015;SDS011;7083;48.854;9.158;2022-12-29T14:21:39;929.93;;;869.60;;
14015;SDS011;7083;48.854;9.158;2022-12-29T14:27:06;915.03;;;856.30;;
14015;SDS011;7083;48.854;9.158;2022-12-29T14:33:15;898.73;;;841.53;;
14015;SDS011;7083;48.854;9.158;2022-12-29T14:35:43;906.23;;;848.87;;
14015;SDS011;7083;48.854;9.158;2022-12-29T14:38:15;906.93;;;848.70;;
14015;SDS011;7083;48.854;9.158;2022-12-29T14:40:45;886.30;;;830.47;;
14015;SDS011;7083;48.854;9.158;2022-12-29T14:43:13;913.17;;;855.17;;
14015;SDS011;7083;48.854;9.158;2022-12-29T14:45:51;886.43;;;830.57;;
14015;SDS011;7083;48.854;9.158;2022-12-29T14:48:22;883.30;;;827.73;;
14015;SDS011;7083;48.854;9.158;2022-12-29T14:51:18;888.60;;;832.73;;
14015;SDS011;7083;48.854;9.158;2022-12-29T14:53:53;882.73;;;827.20;;
14015;SDS011;7083;48.854;9.158;2022-12-29T14:56:20;878.90;;;824.00;;